sensor_id;sensor_type;location;lat;lon;timestamp;temperature;humidity
16523;DHT22;19889;52.546;13.348;2023-03-23T00:01:05;14.80;99.90
16523;DHT22;19889;52.546;13.348;2023-03-23T00:03:33;14.90;99.90
16523;DHT22;19889;52.546;13.348;2023-03-23T00:06:00;14.80;99.90
16523;DHT22;19889;52.546;13.348;2023-03-23T00:08:32;14.80;99.90
16523;DHT22;19889;52.546;13.348;2023-03-23T00:10:59;14.80;99.90
16523;DHT22;19889;52.546;13.348;2023-03-23T00:13:29;14.80;99.90
16523;DHT22;19889;52.546;13.348;2023-03-23T00:15:56;14.70;99.90
16523;DHT22;19889;52.546;13.348;2023-03-23T00:18:24;14.70;99.90
16523;DHT22;19889;52.546;13.348;2023-03-23T00:20:52;14.70;99.90
16523;DHT22;19889;52.546;13.348;2023-03-23T00:23:21;14.70;99.90
16523;DHT22;19889;52.546;13.348;2023-03-23T00:25:51;14.70;99.90
16523;DHT22;19889;52.546;13.348;2023-03-23T00:28:20;14.70;99.90
16523;DHT22;19889;52.546;13.348;2023-03-23T00:30:56;14.70;99.90
16523;DHT22;19889;52.546;13.348;2023-03-23T00:33:24;14.70;99.90
16523;DHT22;19889;52.546;13.348;2023-03-23T00:35:52;14.70;99.90
16523;DHT22;19889;52.546;13.348;2023-03-23T00:38:21;14.70;99.90
16523;DHT22;19889;52.546;13.348;2023-03-23T00:40:48;14.00;99.90
16523;DHT22;19889;52.546;13.348;2023-03-23T00:43:16;14.70;99.90
16523;DHT22;19889;52.546;13.348;2023-03-23T00:45:44;14.70;99.90
16523;DHT22;19889;52.546;13.348;2023-03-23T00:48:20;14.70;99.90
16523;DHT22;19889;52.546;13.348;2023-03-23T00:50:47;14.60;99.90
16523;DHT22;19889;52.546;13.348;2023-03-23T00:53:15;14.60;99.90
16523;DHT22;19889;52.546;13.348;2023-03-23T00:55:44;14.60;99.90
16523;DHT22;19889;52.546;13.348;2023-03-23T00:58:12;14.60;99.90
16523;DHT22;19889;52.546;13.348;2023-03-23T01:00:40;14.60;99.90
16523;DHT22;19889;52.546;13.348;2023-03-23T01:03:09;14.60;99.90
16523;DHT22;19889;52.546;13.348;2023-03-23T01:05:39;14.60;99.90
16523;DHT22;19889;52.546;13.348;2023-03-23T01:08:07;14.60;99.90
16523;DHT22;19889;52.546;13.348;2023-03-23T01:10:34;14.60;99.90
16523;DHT22;19889;52.546;13.348;2023-03-23T01:13:04;14.50;99.90
16523;DHT22;19889;52.546;13.348;2023-03-23T01:15:31;14.50;99.90
16523;DHT22;19889;52.546;13.348;2023-03-23T01:17:59;14.50;99.90
16523;DHT22;19889;52.546;13.348;2023-03-23T01:20:26;14.50;99.90
16523;DHT22;19889;52.546;13.348;2023-03-23T01:22:55;14.50;99.90
16523;DHT22;19889;52.546;13.348;2023-03-23T01:25:27;14.50;99.90
16523;DHT22;19889;52.546;13.348;2023-03-23T01:27:55;14.50;99.90
16523;DHT22;19889;52.546;13.348;2023-03-23T01:30:23;14.40;99.90
16523;DHT22;19889;52.546;13.348;2023-03-23T01:32:51;14.40;99.90
16523;DHT22;19889;52.546;13.348;2023-03-23T01:35:18;14.40;99.90
16523;DHT22;19889;52.546;13.348;2023-03-23T01:37:46;14.40;99.90
16523;DHT22;19889;52.546;13.348;2023-03-23T01:40:15;14.40;99.90
16523;DHT22;19889;52.546;13.348;2023-03-23T01:42:43;14.40;99.90
16523;DHT22;19889;52.546;13.348;2023-03-23T01:45:24;14.30;99.90
16523;DHT22;19889;52.546;13.348;2023-03-23T01:47:55;14.30;99.90
16523;DHT22;19889;52.546;13.348;2023-03-23T01:50:25;14.40;99.90
16523;DHT22;19889;52.546;13.348;2023-03-23T01:52:55;14.30;99.90
16523;DHT22;19889;52.546;13.348;2023-03-23T01:55:25;14.30;99.90
16523;DHT22;19889;52.546;13.348;2023-03-23T01:57:54;14.30;99.90
16523;DHT22;19889;52.546;13.348;2023-03-23T02:00:22;14.30;99.90
16523;DHT22;19889;52.546;13.348;2023-03-23T02:02:53;14.30;99.90
16523;DHT22;19889;52.546;13.348;2023-03-23T02:05:26;14.30;99.90
16523;DHT22;19889;52.546;13.348;2023-03-23T02:07:58;14.20;99.90
16523;DHT22;19889;52.546;13.348;2023-03-23T02:10:30;14.20;99.90
16523;DHT22;19889;52.546;13.348;2023-03-23T02:13:11;14.20;99.90
16523;DHT22;19889;52.546;13.348;2023-03-23T02:15:45;14.20;99.90
16523;DHT22;19889;52.546;13.348;2023-03-23T02:18:31;14.20;99.90
16523;DHT22;19889;52.546;13.348;2023-03-23T02:21:44;14.20;99.90
16523;DHT22;19889;52.546;13.348;2023-03-23T02:24:31;14.20;99.90
16523;DHT22;19889;52.546;13.348;2023-03-23T02:27:08;14.20;99.90
16523;DHT22;19889;52.546;13.348;2023-03-23T02:35:44;14.20;99.90
16523;DHT22;19889;52.546;13.348;2023-03-23T02:38:19;14.10;99.90
16523;DHT22;19889;52.546;13.348;2023-03-23T02:40:49;14.10;99.90
16523;DHT22;19889;52.546;13.348;2023-03-23T02:43:20;14.10;99.90
16523;DHT22;19889;52.546;13.348;2023-03-23T02:45:48;14.10;99.90
16523;DHT22;19889;52.546;13.348;2023-03-23T02:48:19;14.10;99.90
16523;DHT22;19889;52.546;13.348;2023-03-23T02:50:51;14.10;99.90
16523;DHT22;19889;52.546;13.348;2023-03-23T02:53:22;14.10;99.90
16523;DHT22;19889;52.546;13.348;2023-03-23T02:55:52;14.10;99.90
16523;DHT22;19889;52.546;13.348;2023-03-23T02:58:21;14.10;99.90
16523;DHT22;19889;52.546;13.348;2023-03-23T03:00:51;14.00;99.90
16523;DHT22;19889;52.546;13.348;2023-03-23T03:03:23;13.90;99.90
16523;DHT22;19889;52.546;13.348;2023-03-23T03:06:00;14.00;99.90
16523;DHT22;19889;52.546;13.348;2023-03-23T03:08:34;14.00;99.90
16523;DHT22;19889;52.546;13.348;2023-03-23T03:11:09;13.90;99.90
16523;DHT22;19889;52.546;13.348;2023-03-23T03:13:45;14.00;99.90
16523;DHT22;19889;52.546;13.348;2023-03-23T03:16:21;14.00;99.90
16523;DHT22;19889;52.546;13.348;2023-03-23T03:18:54;14.00;99.90
16523;DHT22;19889;52.546;13.348;2023-03-23T03:21:27;14.00;99.90
16523;DHT22;19889;52.546;13.348;2023-03-23T03:23:58;14.80;99.90
16523;DHT22;19889;52.546;13.348;2023-03-23T03:26:28;14.00;99.90
16523;DHT22;19889;52.546;13.348;2023-03-23T03:29:07;14.00;99.90
16523;DHT22;19889;52.546;13.348;2023-03-23T03:31:41;14.00;99.90
16523;DHT22;19889;52.546;13.348;2023-03-23T03:34:12;14.00;99.90
16523;DHT22;19889;52.546;13.348;2023-03-23T03:36:45;14.10;99.90
16523;DHT22;19889;52.546;13.348;2023-03-23T03:39:15;14.10;99.90
16523;DHT22;19889;52.546;13.348;2023-03-23T03:41:43;14.10;99.90
16523;DHT22;19889;52.546;13.348;2023-03-23T03:44:10;14.10;99.90
16523;DHT22;19889;52.546;13.348;2023-03-23T03:46:37;14.00;99.90
16523;DHT22;19889;52.546;13.348;2023-03-23T03:49:07;14.00;99.90
16523;DHT22;19889;52.546;13.348;2023-03-23T03:51:38;14.00;99.90
16523;DHT22;19889;52.546;13.348;2023-03-23T03:54:07;14.00;99.90
16523;DHT22;19889;52.546;13.348;2023-03-23T03:56:34;14.00;99.90
16523;DHT22;19889;52.546;13.348;2023-03-23T03:59:18;14.90;99.90
16523;DHT22;19889;52.546;13.348;2023-03-23T04:01:55;14.00;99.90
16523;DHT22;19889;52.546;13.348;2023-03-23T04:04:23;14.00;99.90
16523;DHT22;19889;52.546;13.348;2023-03-23T04:06:50;14.00;99.90
16523;DHT22;19889;52.546;13.348;2023-03-23T04:09:18;13.70;99.90
16523;DHT22;19889;52.546;13.348;2023-03-23T04:11:47;14.10;99.90
16523;DHT22;19889;52.546;13.348;2023-03-23T04:14:33;14.10;99.90
16523;DHT22;19889;52.546;13.348;2023-03-23T04:17:00;14.10;99.90
16523;DHT22;19889;52.546;13.348;2023-03-23T04:19:27;14.00;99.90
16523;DHT22;19889;52.546;13.348;2023-03-23T04:21:58;14.10;99.90
16523;DHT22;19889;52.546;13.348;2023-03-23T04:24:30;14.10;99.90
16523;DHT22;19889;52.546;13.348;2023-03-23T04:26:59;14.10;99.90
16523;DHT22;19889;52.546;13.348;2023-03-23T04:29:28;14.10;99.90
16523;DHT22;19889;52.546;13.348;2023-03-23T04:32:20;14.10;99.90
16523;DHT22;19889;52.546;13.348;2023-03-23T04:34:51;14.10;99.90
16523;DHT22;19889;52.546;13.348;2023-03-23T04:37:22;14.10;99.90
16523;DHT22;19889;52.546;13.348;2023-03-23T04:39:56;14.10;99.90
16523;DHT22;19889;52.546;13.348;2023-03-23T04:42:28;14.10;99.90
16523;DHT22;19889;52.546;13.348;2023-03-23T04:45:19;14.10;99.90
16523;DHT22;19889;52.546;13.348;2023-03-23T04:47:51;14.10;99.90
16523;DHT22;19889;52.546;13.348;2023-03-23T04:50:31;14.10;99.90
16523;DHT22;19889;52.546;13.348;2023-03-23T04:53:05;14.10;99.90
16523;DHT22;19889;52.546;13.348;2023-03-23T04:55:35;14.00;99.90
16523;DHT22;19889;52.546;13.348;2023-03-23T04:58:03;14.00;99.90
16523;DHT22;19889;52.546;13.348;2023-03-23T05:00:39;14.00;99.90
16523;DHT22;19889;52.546;13.348;2023-03-23T05:03:06;13.90;99.90
16523;DHT22;19889;52.546;13.348;2023-03-23T05:05:34;13.90;99.90
16523;DHT22;19889;52.546;13.348;2023-03-23T05:08:05;14.00;99.90
16523;DHT22;19889;52.546;13.348;2023-03-23T05:10:37;13.90;99.90
16523;DHT22;19889;52.546;13.348;2023-03-23T05:13:08;13.90;99.90
16523;DHT22;19889;52.546;13.348;2023-03-23T05:15:35;13.90;99.90
16523;DHT22;19889;52.546;13.348;2023-03-23T05:18:04;13.90;99.90
16523;DHT22;19889;52.546;13.348;2023-03-23T05:20:32;13.80;99.90
16523;DHT22;19889;52.546;13.348;2023-03-23T05:23:07;13.80;99.90
16523;DHT22;19889;52.546;13.348;2023-03-23T05:25:36;13.80;99.90
16523;DHT22;19889;52.546;13.348;2023-03-23T05:28:17;13.80;99.90
16523;DHT22;19889;52.546;13.348;2023-03-23T05:30:47;13.80;99.90
16523;DHT22;19889;52.546;13.348;2023-03-23T05:33:16;13.70;99.90
16523;DHT22;19889;52.546;13.348;2023-03-23T05:36:12;13.70;99.90
16523;DHT22;19889;52.546;13.348;2023-03-23T05:38:58;13.70;99.90
16523;DHT22;19889;52.546;13.348;2023-03-23T05:41:28;15.30;99.90
16523;DHT22;19889;52.546;13.348;2023-03-23T05:43:55;13.80;99.90
16523;DHT22;19889;52.546;13.348;2023-03-23T05:46:26;13.70;99.90
16523;DHT22;19889;52.546;13.348;2023-03-23T05:48:57;13.70;99.90
16523;DHT22;19889;52.546;13.348;2023-03-23T05:51:31;13.80;99.90
16523;DHT22;19889;52.546;13.348;2023-03-23T05:53:58;13.60;99.90
16523;DHT22;19889;52.546;13.348;2023-03-23T05:56:25;13.60;99.90
16523;DHT22;19889;52.546;13.348;2023-03-23T05:59:13;13.60;99.90
16523;DHT22;19889;52.546;13.348;2023-03-23T06:01:44;13.70;99.90
16523;DHT22;19889;52.546;13.348;2023-03-23T06:04:10;13.60;99.90
16523;DHT22;19889;52.546;13.348;2023-03-23T06:06:59;13.50;99.90
16523;DHT22;19889;52.546;13.348;2023-03-23T06:09:28;13.60;99.90
16523;DHT22;19889;52.546;13.348;2023-03-23T06:12:04;13.60;99.90
16523;DHT22;19889;52.546;13.348;2023-03-23T06:14:40;13.50;99.90
16523;DHT22;19889;52.546;13.348;2023-03-23T06:17:07;13.50;99.90
16523;DHT22;19889;52.546;13.348;2023-03-23T06:19:34;13.40;99.90
16523;DHT22;19889;52.546;13.348;2023-03-23T06:22:07;13.40;99.90
16523;DHT22;19889;52.546;13.348;2023-03-23T06:25:00;13.60;99.90
16523;DHT22;19889;52.546;13.348;2023-03-23T06:27:34;13.30;99.90
16523;DHT22;19889;52.546;13.348;2023-03-23T06:30:05;13.30;99.90
16523;DHT22;19889;52.546;13.348;2023-03-23T06:32:33;13.20;99.90
16523;DHT22;19889;52.546;13.348;2023-03-23T06:35:02;13.20;99.90
16523;DHT22;19889;52.546;13.348;2023-03-23T06:37:29;13.20;99.90
16523;DHT22;19889;52.546;13.348;2023-03-23T06:40:20;13.20;99.90
16523;DHT22;19889;52.546;13.348;2023-03-23T06:42:56;13.20;99.90
16523;DHT22;19889;52.546;13.348;2023-03-23T06:45:43;13.20;99.90
16523;DHT22;19889;52.546;13.348;2023-03-23T06:48:32;13.30;99.90
16523;DHT22;19889;52.546;13.348;2023-03-23T06:51:00;13.20;99.90
16523;DHT22;19889;52.546;13.348;2023-03-23T06:53:28;13.20;99.90
16523;DHT22;19889;52.546;13.348;2023-03-23T06:55:57;13.10;99.90
16523;DHT22;19889;52.546;13.348;2023-03-23T06:58:24;13.10;99.90
16523;DHT22;19889;52.546;13.348;2023-03-23T07:00:55;13.10;99.90
16523;DHT22;19889;52.546;13.348;2023-03-23T07:03:29;13.10;99.90
16523;DHT22;19889;52.546;13.348;2023-03-23T07:05:58;13.00;99.90
16523;DHT22;19889;52.546;13.348;2023-03-23T07:08:27;13.00;99.90
16523;DHT22;19889;52.546;13.348;2023-03-23T07:10:55;13.00;99.90
16523;DHT22;19889;52.546;13.348;2023-03-23T07:13:27;13.00;99.90
16523;DHT22;19889;52.546;13.348;2023-03-23T07:15:59;13.00;99.90
16523;DHT22;19889;52.546;13.348;2023-03-23T07:18:28;14.00;99.90
16523;DHT22;19889;52.546;13.348;2023-03-23T07:20:57;13.00;99.90
16523;DHT22;19889;52.546;13.348;2023-03-23T07:23:29;13.00;99.90
16523;DHT22;19889;52.546;13.348;2023-03-23T07:26:05;13.00;99.90
16523;DHT22;19889;52.546;13.348;2023-03-23T07:28:38;13.10;99.90
16523;DHT22;19889;52.546;13.348;2023-03-23T07:31:21;13.10;99.90
16523;DHT22;19889;52.546;13.348;2023-03-23T07:33:49;13.10;99.90
16523;DHT22;19889;52.546;13.348;2023-03-23T07:36:16;13.10;99.90
16523;DHT22;19889;52.546;13.348;2023-03-23T07:38:43;13.10;99.90
16523;DHT22;19889;52.546;13.348;2023-03-23T07:41:11;13.40;99.90
16523;DHT22;19889;52.546;13.348;2023-03-23T07:43:41;13.10;99.90
16523;DHT22;19889;52.546;13.348;2023-03-23T07:46:34;13.10;99.90
16523;DHT22;19889;52.546;13.348;2023-03-23T07:49:21;13.10;99.90
16523;DHT22;19889;52.546;13.348;2023-03-23T07:52:00;13.10;99.90
16523;DHT22;19889;52.546;13.348;2023-03-23T07:54:28;13.10;99.90
16523;DHT22;19889;52.546;13.348;2023-03-23T07:57:14;13.10;99.90
16523;DHT22;19889;52.546;13.348;2023-03-23T07:59:47;13.20;99.90
16523;DHT22;19889;52.546;13.348;2023-03-23T08:02:15;13.20;99.90
16523;DHT22;19889;52.546;13.348;2023-03-23T08:05:12;13.20;99.90
16523;DHT22;19889;52.546;13.348;2023-03-23T08:07:57;13.30;99.90
16523;DHT22;19889;52.546;13.348;2023-03-23T08:10:44;13.30;99.90
16523;DHT22;19889;52.546;13.348;2023-03-23T08:13:38;13.30;99.90
16523;DHT22;19889;52.546;13.348;2023-03-23T08:16:25;13.30;99.90
16523;DHT22;19889;52.546;13.348;2023-03-23T08:19:09;13.30;99.90
16523;DHT22;19889;52.546;13.348;2023-03-23T08:22:12;13.30;99.90
16523;DHT22;19889;52.546;13.348;2023-03-23T08:25:01;13.30;99.90
16523;DHT22;19889;52.546;13.348;2023-03-23T08:27:40;13.30;99.90
16523;DHT22;19889;52.546;13.348;2023-03-23T08:30:38;13.30;99.90
16523;DHT22;19889;52.546;13.348;2023-03-23T08:33:18;13.30;99.90
16523;DHT22;19889;52.546;13.348;2023-03-23T08:36:11;13.20;99.90
16523;DHT22;19889;52.546;13.348;2023-03-23T08:38:56;13.20;99.90
16523;DHT22;19889;52.546;13.348;2023-03-23T08:41:35;13.30;99.90
16523;DHT22;19889;52.546;13.348;2023-03-23T08:44:18;13.30;99.90
16523;DHT22;19889;52.546;13.348;2023-03-23T08:47:12;13.40;99.90
16523;DHT22;19889;52.546;13.348;2023-03-23T08:49:57;13.40;99.90
16523;DHT22;19889;52.546;13.348;2023-03-23T08:52:53;13.40;99.90
16523;DHT22;19889;52.546;13.348;2023-03-23T08:55:40;13.40;99.90
16523;DHT22;19889;52.546;13.348;2023-03-23T08:58:14;13.40;99.90
16523;DHT22;19889;52.546;13.348;2023-03-23T09:01:13;13.40;99.90
16523;DHT22;19889;52.546;13.348;2023-03-23T09:03:44;13.40;99.90
16523;DHT22;19889;52.546;13.348;2023-03-23T09:06:30;13.50;99.90
16523;DHT22;19889;52.546;13.348;2023-03-23T09:09:00;13.50;99.90
16523;DHT22;19889;52.546;13.348;2023-03-23T09:11:32;13.50;99.90
16523;DHT22;19889;52.546;13.348;2023-03-23T09:13:59;13.60;99.90
16523;DHT22;19889;52.546;13.348;2023-03-23T09:16:26;13.60;99.90
16523;DHT22;19889;52.546;13.348;2023-03-23T09:18:53;13.60;99.90
16523;DHT22;19889;52.546;13.348;2023-03-23T09:21:20;13.60;99.90
16523;DHT22;19889;52.546;13.348;2023-03-23T09:23:47;13.60;99.90
16523;DHT22;19889;52.546;13.348;2023-03-23T09:26:16;13.60;99.90
16523;DHT22;19889;52.546;13.348;2023-03-23T09:28:43;13.60;99.90
16523;DHT22;19889;52.546;13.348;2023-03-23T09:31:11;13.70;99.90
16523;DHT22;19889;52.546;13.348;2023-03-23T09:33:39;13.70;99.90
16523;DHT22;19889;52.546;13.348;2023-03-23T09:36:06;13.80;99.90
16523;DHT22;19889;52.546;13.348;2023-03-23T09:38:38;13.80;99.90
16523;DHT22;19889;52.546;13.348;2023-03-23T09:41:13;13.90;99.90
16523;DHT22;19889;52.546;13.348;2023-03-23T09:44:04;13.90;99.90
16523;DHT22;19889;52.546;13.348;2023-03-23T09:46:42;14.20;99.90
16523;DHT22;19889;52.546;13.348;2023-03-23T09:49:14;14.00;99.90
16523;DHT22;19889;52.546;13.348;2023-03-23T09:51:45;14.00;99.90
16523;DHT22;19889;52.546;13.348;2023-03-23T09:54:20;14.00;99.90
16523;DHT22;19889;52.546;13.348;2023-03-23T09:56:49;14.10;99.90
16523;DHT22;19889;52.546;13.348;2023-03-23T09:59:21;14.10;99.90
16523;DHT22;19889;52.546;13.348;2023-03-23T10:01:51;14.20;99.90
16523;DHT22;19889;52.546;13.348;2023-03-23T10:04:27;14.20;99.90
16523;DHT22;19889;52.546;13.348;2023-03-23T10:06:58;14.20;99.90
16523;DHT22;19889;52.546;13.348;2023-03-23T10:09:26;14.30;99.90
16523;DHT22;19889;52.546;13.348;2023-03-23T10:12:02;14.30;99.90
16523;DHT22;19889;52.546;13.348;2023-03-23T10:14:42;14.30;99.90
16523;DHT22;19889;52.546;13.348;2023-03-23T10:17:14;14.30;99.90
16523;DHT22;19889;52.546;13.348;2023-03-23T10:19:47;14.30;99.90
16523;DHT22;19889;52.546;13.348;2023-03-23T10:22:29;14.40;99.90
16523;DHT22;19889;52.546;13.348;2023-03-23T10:25:03;14.30;99.90
16523;DHT22;19889;52.546;13.348;2023-03-23T10:27:36;14.40;99.90
16523;DHT22;19889;52.546;13.348;2023-03-23T10:30:15;14.50;99.90
16523;DHT22;19889;52.546;13.348;2023-03-23T10:32:48;14.50;99.90
16523;DHT22;19889;52.546;13.348;2023-03-23T10:35:20;14.50;99.90
16523;DHT22;19889;52.546;13.348;2023-03-23T10:37:54;14.50;99.90
16523;DHT22;19889;52.546;13.348;2023-03-23T10:40:26;14.60;99.90
16523;DHT22;19889;52.546;13.348;2023-03-23T10:42:55;14.60;99.90
16523;DHT22;19889;52.546;13.348;2023-03-23T10:45:29;14.60;99.90
16523;DHT22;19889;52.546;13.348;2023-03-23T10:48:04;14.60;99.90
16523;DHT22;19889;52.546;13.348;2023-03-23T10:50:36;14.70;99.90
16523;DHT22;19889;52.546;13.348;2023-03-23T10:53:13;14.70;99.90
16523;DHT22;19889;52.546;13.348;2023-03-23T10:55:42;14.70;99.90
16523;DHT22;19889;52.546;13.348;2023-03-23T10:58:21;14.70;99.90
16523;DHT22;19889;52.546;13.348;2023-03-23T11:00:50;14.80;99.90
16523;DHT22;19889;52.546;13.348;2023-03-23T11:03:25;14.90;99.90
16523;DHT22;19889;52.546;13.348;2023-03-23T11:05:56;14.80;99.90
16523;DHT22;19889;52.546;13.348;2023-03-23T11:08:25;14.80;99.90
16523;DHT22;19889;52.546;13.348;2023-03-23T11:10:54;17.50;99.90
16523;DHT22;19889;52.546;13.348;2023-03-23T11:13:27;14.60;99.90
16523;DHT22;19889;52.546;13.348;2023-03-23T11:15:56;14.90;99.90
16523;DHT22;19889;52.546;13.348;2023-03-23T11:18:26;14.80;99.90
16523;DHT22;19889;52.546;13.348;2023-03-23T11:20:57;14.90;99.90
16523;DHT22;19889;52.546;13.348;2023-03-23T11:23:27;14.80;99.90
16523;DHT22;19889;52.546;13.348;2023-03-23T11:25:58;15.00;99.90
16523;DHT22;19889;52.546;13.348;2023-03-23T11:28:32;14.90;99.90
16523;DHT22;19889;52.546;13.348;2023-03-23T11:31:02;14.90;99.90
16523;DHT22;19889;52.546;13.348;2023-03-23T11:33:30;15.00;99.90
16523;DHT22;19889;52.546;13.348;2023-03-23T11:35:59;15.00;99.90
16523;DHT22;19889;52.546;13.348;2023-03-23T11:38:26;15.10;99.90
16523;DHT22;19889;52.546;13.348;2023-03-23T11:40:54;15.10;99.90
16523;DHT22;19889;52.546;13.348;2023-03-23T11:43:22;15.20;99.90
16523;DHT22;19889;52.546;13.348;2023-03-23T11:45:56;15.20;99.90
16523;DHT22;19889;52.546;13.348;2023-03-23T11:48:31;15.20;99.90
16523;DHT22;19889;52.546;13.348;2023-03-23T11:51:02;15.20;99.90
16523;DHT22;19889;52.546;13.348;2023-03-23T11:53:37;15.30;99.90
16523;DHT22;19889;52.546;13.348;2023-03-23T11:56:15;15.30;99.90
16523;DHT22;19889;52.546;13.348;2023-03-23T11:58:44;15.30;99.90
16523;DHT22;19889;52.546;13.348;2023-03-23T12:01:20;15.30;99.90
16523;DHT22;19889;52.546;13.348;2023-03-23T12:04:09;15.40;99.90
16523;DHT22;19889;52.546;13.348;2023-03-23T12:06:47;15.40;99.90
16523;DHT22;19889;52.546;13.348;2023-03-23T12:09:26;15.40;99.90
16523;DHT22;19889;52.546;13.348;2023-03-23T12:12:05;15.40;99.90
16523;DHT22;19889;52.546;13.348;2023-03-23T12:14:43;15.40;99.90
16523;DHT22;19889;52.546;13.348;2023-03-23T12:17:23;15.40;99.90
16523;DHT22;19889;52.546;13.348;2023-03-23T12:20:06;15.40;99.90
16523;DHT22;19889;52.546;13.348;2023-03-23T12:22:53;15.40;99.90
16523;DHT22;19889;52.546;13.348;2023-03-23T12:25:41;15.50;99.90
16523;DHT22;19889;52.546;13.348;2023-03-23T12:28:18;15.40;99.90
16523;DHT22;19889;52.546;13.348;2023-03-23T12:30:55;15.40;99.90
16523;DHT22;19889;52.546;13.348;2023-03-23T12:33:33;15.30;99.90
16523;DHT22;19889;52.546;13.348;2023-03-23T12:36:12;15.40;99.90
16523;DHT22;19889;52.546;13.348;2023-03-23T12:38:56;15.50;99.90
16523;DHT22;19889;52.546;13.348;2023-03-23T12:41:34;15.50;99.90
16523;DHT22;19889;52.546;13.348;2023-03-23T12:44:06;15.30;99.90
16523;DHT22;19889;52.546;13.348;2023-03-23T12:49:43;15.50;99.90
16523;DHT22;19889;52.546;13.348;2023-03-23T12:52:18;15.50;99.90
16523;DHT22;19889;52.546;13.348;2023-03-23T12:54:49;15.50;99.90
16523;DHT22;19889;52.546;13.348;2023-03-23T12:57:34;15.50;99.90
16523;DHT22;19889;52.546;13.348;2023-03-23T13:00:07;15.60;99.90
16523;DHT22;19889;52.546;13.348;2023-03-23T13:02:42;15.60;99.90
16523;DHT22;19889;52.546;13.348;2023-03-23T13:05:24;15.70;99.90
16523;DHT22;19889;52.546;13.348;2023-03-23T13:07:57;15.70;99.90
16523;DHT22;19889;52.546;13.348;2023-03-23T13:10:29;15.70;99.90
16523;DHT22;19889;52.546;13.348;2023-03-23T13:12:57;15.80;99.90
16523;DHT22;19889;52.546;13.348;2023-03-23T13:15:32;15.80;99.90
16523;DHT22;19889;52.546;13.348;2023-03-23T13:18:08;15.80;99.90
16523;DHT22;19889;52.546;13.348;2023-03-23T13:20:48;15.80;99.90
16523;DHT22;19889;52.546;13.348;2023-03-23T13:23:21;15.80;99.90
16523;DHT22;19889;52.546;13.348;2023-03-23T13:25:52;15.90;99.90
16523;DHT22;19889;52.546;13.348;2023-03-23T13:28:20;15.90;99.90
16523;DHT22;19889;52.546;13.348;2023-03-23T13:30:56;15.90;99.90
16523;DHT22;19889;52.546;13.348;2023-03-23T13:33:24;15.90;99.90
16523;DHT22;19889;52.546;13.348;2023-03-23T13:35:52;16.00;99.90
16523;DHT22;19889;52.546;13.348;2023-03-23T13:38:23;16.00;99.90
16523;DHT22;19889;52.546;13.348;2023-03-23T13:40:51;16.00;99.90
16523;DHT22;19889;52.546;13.348;2023-03-23T13:43:28;16.00;99.90
16523;DHT22;19889;52.546;13.348;2023-03-23T13:46:07;16.00;99.90
16523;DHT22;19889;52.546;13.348;2023-03-23T13:48:41;16.10;99.90
16523;DHT22;19889;52.546;13.348;2023-03-23T13:51:26;16.10;99.90
16523;DHT22;19889;52.546;13.348;2023-03-23T13:54:13;16.20;99.90
16523;DHT22;19889;52.546;13.348;2023-03-23T13:56:43;16.20;99.90
16523;DHT22;19889;52.546;13.348;2023-03-23T13:59:15;16.20;99.90
16523;DHT22;19889;52.546;13.348;2023-03-23T14:01:43;16.20;99.90
16523;DHT22;19889;52.546;13.348;2023-03-23T14:04:13;16.20;99.90
16523;DHT22;19889;52.546;13.348;2023-03-23T14:06:41;16.20;99.90
16523;DHT22;19889;52.546;13.348;2023-03-23T14:09:18;16.30;99.90
16523;DHT22;19889;52.546;13.348;2023-03-23T14:11:49;16.30;99.90
16523;DHT22;19889;52.546;13.348;2023-03-23T14:14:22;16.30;99.90
16523;DHT22;19889;52.546;13.348;2023-03-23T14:16:51;16.40;99.90
16523;DHT22;19889;52.546;13.348;2023-03-23T14:19:21;16.40;99.90
16523;DHT22;19889;52.546;13.348;2023-03-23T14:21:51;15.70;99.90
16523;DHT22;19889;52.546;13.348;2023-03-23T14:24:22;16.40;99.90
16523;DHT22;19889;52.546;13.348;2023-03-23T14:26:52;16.40;99.90
16523;DHT22;19889;52.546;13.348;2023-03-23T14:29:20;16.40;99.90
16523;DHT22;19889;52.546;13.348;2023-03-23T14:31:53;16.40;99.90
16523;DHT22;19889;52.546;13.348;2023-03-23T14:34:24;16.40;99.90
16523;DHT22;19889;52.546;13.348;2023-03-23T14:36:53;16.40;99.90
16523;DHT22;19889;52.546;13.348;2023-03-23T14:39:25;16.40;99.90
16523;DHT22;19889;52.546;13.348;2023-03-23T14:41:54;16.40;99.90
16523;DHT22;19889;52.546;13.348;2023-03-23T14:44:24;16.40;99.90
16523;DHT22;19889;52.546;13.348;2023-03-23T14:46:52;16.40;99.90
16523;DHT22;19889;52.546;13.348;2023-03-23T14:49:29;16.40;99.90
16523;DHT22;19889;52.546;13.348;2023-03-23T14:52:01;16.40;99.90
16523;DHT22;19889;52.546;13.348;2023-03-23T14:54:31;16.40;99.90
16523;DHT22;19889;52.546;13.348;2023-03-23T14:57:03;16.40;99.90
16523;DHT22;19889;52.546;13.348;2023-03-23T14:59:35;16.40;99.90
16523;DHT22;19889;52.546;13.348;2023-03-23T15:02:03;16.40;99.90
16523;DHT22;19889;52.546;13.348;2023-03-23T15:04:30;16.40;99.90
16523;DHT22;19889;52.546;13.348;2023-03-23T15:07:01;16.40;99.90
16523;DHT22;19889;52.546;13.348;2023-03-23T15:09:30;16.40;99.90
16523;DHT22;19889;52.546;13.348;2023-03-23T15:12:00;16.40;99.90
16523;DHT22;19889;52.546;13.348;2023-03-23T15:14:29;16.40;99.90
16523;DHT22;19889;52.546;13.348;2023-03-23T15:16:59;16.40;99.90
16523;DHT22;19889;52.546;13.348;2023-03-23T15:19:31;16.50;99.90
16523;DHT22;19889;52.546;13.348;2023-03-23T15:22:06;16.50;99.90
16523;DHT22;19889;52.546;13.348;2023-03-23T15:24:38;16.50;99.90
16523;DHT22;19889;52.546;13.348;2023-03-23T15:27:13;16.40;99.90
16523;DHT22;19889;52.546;13.348;2023-03-23T15:29:51;16.50;99.90
16523;DHT22;19889;52.546;13.348;2023-03-23T15:32:23;16.40;99.90
16523;DHT22;19889;52.546;13.348;2023-03-23T15:34:51;16.40;99.90
16523;DHT22;19889;52.546;13.348;2023-03-23T15:37:21;16.40;99.90
16523;DHT22;19889;52.546;13.348;2023-03-23T15:39:50;16.40;99.90
16523;DHT22;19889;52.546;13.348;2023-03-23T15:42:27;16.40;99.90
16523;DHT22;19889;52.546;13.348;2023-03-23T15:45:15;16.40;99.90
16523;DHT22;19889;52.546;13.348;2023-03-23T15:47:45;16.40;99.90
16523;DHT22;19889;52.546;13.348;2023-03-23T15:50:16;16.50;99.90
16523;DHT22;19889;52.546;13.348;2023-03-23T15:52:44;16.40;99.90
16523;DHT22;19889;52.546;13.348;2023-03-23T15:55:22;16.40;99.90
16523;DHT22;19889;52.546;13.348;2023-03-23T15:57:50;16.40;99.90
16523;DHT22;19889;52.546;13.348;2023-03-23T16:00:19;16.40;99.90
16523;DHT22;19889;52.546;13.348;2023-03-23T16:02:49;16.40;99.90